sensor_id;sensor_type;location;lat;lon;timestamp;P1;durP1;ratioP1;P2;durP2;ratioP2
64615;SDS011;51027;42.162;24.754;2023-05-07T00:01:46;15.40;;;6.43;;
64615;SDS011;51027;42.162;24.754;2023-05-07T00:04:12;17.23;;;6.82;;
64615;SDS011;51027;42.162;24.754;2023-05-07T00:06:38;15.88;;;6.45;;
64615;SDS011;51027;42.162;24.754;2023-05-07T00:09:04;16.30;;;6.15;;
64615;SDS011;51027;42.162;24.754;2023-05-07T00:11:30;19.38;;;8.35;;
64615;SDS011;51027;42.162;24.754;2023-05-07T00:13:56;17.48;;;6.75;;
64615;SDS011;51027;42.162;24.754;2023-05-07T00:16:21;17.20;;;6.82;;
64615;SDS011;51027;42.162;24.754;2023-05-07T00:18:47;15.20;;;6.25;;
64615;SDS011;51027;42.162;24.754;2023-05-07T00:21:12;16.65;;;6.55;;
64615;SDS011;51027;42.162;24.754;2023-05-07T00:23:38;17.17;;;7.18;;
64615;SDS011;51027;42.162;24.754;2023-05-07T00:26:04;15.98;;;6.43;;
64615;SDS011;51027;42.162;24.754;2023-05-07T00:28:29;15.38;;;6.38;;
64615;SDS011;51027;42.162;24.754;2023-05-07T00:30:55;16.65;;;6.72;;
64615;SDS011;51027;42.162;24.754;2023-05-07T00:33:20;16.10;;;6.32;;
64615;SDS011;51027;42.162;24.754;2023-05-07T00:35:47;15.77;;;6.88;;
64615;SDS011;51027;42.162;24.754;2023-05-07T00:38:13;17.27;;;6.45;;
64615;SDS011;51027;42.162;24.754;2023-05-07T00:40:38;16.27;;;7.25;;
64615;SDS011;51027;42.162;24.754;2023-05-07T00:43:04;16.70;;;6.60;;
64615;SDS011;51027;42.162;24.754;2023-05-07T00:45:29;16.33;;;7.00;;
64615;SDS011;51027;42.162;24.754;2023-05-07T00:47:55;15.88;;;6.60;;
64615;SDS011;51027;42.162;24.754;2023-05-07T00:50:29;16.52;;;7.18;;
64615;SDS011;51027;42.162;24.754;2023-05-07T00:55:21;16.95;;;6.97;;
64615;SDS011;51027;42.162;24.754;2023-05-07T00:57:48;16.63;;;7.30;;
64615;SDS011;51027;42.162;24.754;2023-05-07T01:00:15;15.98;;;6.97;;
64615;SDS011;51027;42.162;24.754;2023-05-07T01:02:40;16.85;;;7.45;;
64615;SDS011;51027;42.162;24.754;2023-05-07T01:05:07;16.95;;;7.35;;
64615;SDS011;51027;42.162;24.754;2023-05-07T01:10:03;16.65;;;6.43;;
64615;SDS011;51027;42.162;24.754;2023-05-07T01:12:31;16.35;;;7.03;;
64615;SDS011;51027;42.162;24.754;2023-05-07T01:14:57;15.95;;;7.18;;
64615;SDS011;51027;42.162;24.754;2023-05-07T01:17:23;17.30;;;7.35;;
64615;SDS011;51027;42.162;24.754;2023-05-07T01:19:48;16.95;;;7.30;;
64615;SDS011;51027;42.162;24.754;2023-05-07T01:22:15;15.68;;;6.75;;
64615;SDS011;51027;42.162;24.754;2023-05-07T01:24:45;16.05;;;7.00;;
64615;SDS011;51027;42.162;24.754;2023-05-07T01:27:11;15.73;;;7.55;;
64615;SDS011;51027;42.162;24.754;2023-05-07T01:29:36;17.10;;;7.88;;
64615;SDS011;51027;42.162;24.754;2023-05-07T01:32:02;18.83;;;7.85;;
64615;SDS011;51027;42.162;24.754;2023-05-07T01:34:30;17.17;;;8.20;;
64615;SDS011;51027;42.162;24.754;2023-05-07T01:36:57;22.33;;;9.48;;
64615;SDS011;51027;42.162;24.754;2023-05-07T01:39:24;21.45;;;9.95;;
64615;SDS011;51027;42.162;24.754;2023-05-07T01:41:51;18.80;;;9.68;;
64615;SDS011;51027;42.162;24.754;2023-05-07T01:44:16;21.85;;;10.15;;
64615;SDS011;51027;42.162;24.754;2023-05-07T01:46:43;21.98;;;10.52;;
64615;SDS011;51027;42.162;24.754;2023-05-07T01:49:10;20.35;;;10.02;;
64615;SDS011;51027;42.162;24.754;2023-05-07T01:51:35;21.30;;;10.05;;
64615;SDS011;51027;42.162;24.754;2023-05-07T01:54:01;19.73;;;8.95;;
64615;SDS011;51027;42.162;24.754;2023-05-07T01:56:26;19.67;;;9.68;;
64615;SDS011;51027;42.162;24.754;2023-05-07T01:58:52;20.50;;;9.43;;
64615;SDS011;51027;42.162;24.754;2023-05-07T02:01:17;20.95;;;9.82;;
64615;SDS011;51027;42.162;24.754;2023-05-07T02:03:43;20.02;;;9.27;;
64615;SDS011;51027;42.162;24.754;2023-05-07T02:06:09;20.25;;;9.82;;
64615;SDS011;51027;42.162;24.754;2023-05-07T02:08:34;21.83;;;10.18;;
64615;SDS011;51027;42.162;24.754;2023-05-07T02:11:00;19.77;;;9.70;;
64615;SDS011;51027;42.162;24.754;2023-05-07T02:13:29;20.83;;;9.32;;
64615;SDS011;51027;42.162;24.754;2023-05-07T02:15:57;20.88;;;10.05;;
64615;SDS011;51027;42.162;24.754;2023-05-07T02:18:23;21.55;;;9.90;;
64615;SDS011;51027;42.162;24.754;2023-05-07T02:20:48;22.75;;;10.48;;
64615;SDS011;51027;42.162;24.754;2023-05-07T02:23:13;21.42;;;10.15;;
64615;SDS011;51027;42.162;24.754;2023-05-07T02:25:39;19.35;;;9.25;;
64615;SDS011;51027;42.162;24.754;2023-05-07T02:28:04;19.70;;;9.45;;
64615;SDS011;51027;42.162;24.754;2023-05-07T02:30:30;20.60;;;9.80;;
64615;SDS011;51027;42.162;24.754;2023-05-07T02:32:55;20.42;;;9.82;;
64615;SDS011;51027;42.162;24.754;2023-05-07T02:35:21;18.95;;;8.63;;
64615;SDS011;51027;42.162;24.754;2023-05-07T02:37:46;17.85;;;8.70;;
64615;SDS011;51027;42.162;24.754;2023-05-07T02:40:11;18.00;;;9.27;;
64615;SDS011;51027;42.162;24.754;2023-05-07T02:42:37;18.52;;;8.55;;
64615;SDS011;51027;42.162;24.754;2023-05-07T02:45:02;17.05;;;8.15;;
64615;SDS011;51027;42.162;24.754;2023-05-07T02:47:28;19.35;;;9.27;;
64615;SDS011;51027;42.162;24.754;2023-05-07T02:49:54;19.00;;;9.30;;
64615;SDS011;51027;42.162;24.754;2023-05-07T02:52:20;17.92;;;9.05;;
64615;SDS011;51027;42.162;24.754;2023-05-07T02:54:46;19.58;;;9.45;;
64615;SDS011;51027;42.162;24.754;2023-05-07T02:57:12;20.42;;;9.38;;
64615;SDS011;51027;42.162;24.754;2023-05-07T02:59:37;19.88;;;9.55;;
64615;SDS011;51027;42.162;24.754;2023-05-07T03:02:03;21.83;;;9.50;;
64615;SDS011;51027;42.162;24.754;2023-05-07T03:04:28;19.42;;;9.93;;
64615;SDS011;51027;42.162;24.754;2023-05-07T03:06:53;19.92;;;9.43;;
64615;SDS011;51027;42.162;24.754;2023-05-07T03:09:19;19.17;;;9.35;;
64615;SDS011;51027;42.162;24.754;2023-05-07T03:11:45;20.48;;;9.25;;
64615;SDS011;51027;42.162;24.754;2023-05-07T03:14:11;19.90;;;9.70;;
64615;SDS011;51027;42.162;24.754;2023-05-07T03:16:36;20.15;;;10.07;;
64615;SDS011;51027;42.162;24.754;2023-05-07T03:19:01;19.45;;;9.75;;
64615;SDS011;51027;42.162;24.754;2023-05-07T03:21:27;20.33;;;9.95;;
64615;SDS011;51027;42.162;24.754;2023-05-07T03:23:52;21.48;;;10.27;;
64615;SDS011;51027;42.162;24.754;2023-05-07T03:26:18;23.05;;;10.25;;
64615;SDS011;51027;42.162;24.754;2023-05-07T03:28:43;19.95;;;10.07;;
64615;SDS011;51027;42.162;24.754;2023-05-07T03:31:09;22.83;;;12.75;;
64615;SDS011;51027;42.162;24.754;2023-05-07T03:33:34;22.92;;;12.23;;
64615;SDS011;51027;42.162;24.754;2023-05-07T03:36:00;22.30;;;11.35;;
64615;SDS011;51027;42.162;24.754;2023-05-07T03:38:26;22.25;;;11.18;;
64615;SDS011;51027;42.162;24.754;2023-05-07T03:40:51;22.88;;;12.45;;
64615;SDS011;51027;42.162;24.754;2023-05-07T03:43:17;20.85;;;11.10;;
64615;SDS011;51027;42.162;24.754;2023-05-07T03:45:42;20.55;;;11.07;;
64615;SDS011;51027;42.162;24.754;2023-05-07T03:48:07;22.17;;;11.68;;
64615;SDS011;51027;42.162;24.754;2023-05-07T03:50:33;21.90;;;11.18;;
64615;SDS011;51027;42.162;24.754;2023-05-07T03:52:58;23.95;;;11.30;;
64615;SDS011;51027;42.162;24.754;2023-05-07T03:55:24;23.05;;;11.18;;
64615;SDS011;51027;42.162;24.754;2023-05-07T03:57:50;21.55;;;11.48;;
64615;SDS011;51027;42.162;24.754;2023-05-07T04:00:15;21.25;;;11.25;;
64615;SDS011;51027;42.162;24.754;2023-05-07T04:02:41;20.98;;;10.18;;
64615;SDS011;51027;42.162;24.754;2023-05-07T04:05:07;23.58;;;9.90;;
64615;SDS011;51027;42.162;24.754;2023-05-07T04:07:33;20.50;;;9.88;;
64615;SDS011;51027;42.162;24.754;2023-05-07T04:09:58;19.25;;;9.70;;
64615;SDS011;51027;42.162;24.754;2023-05-07T04:12:23;18.65;;;9.95;;
64615;SDS011;51027;42.162;24.754;2023-05-07T04:14:49;18.48;;;9.25;;
64615;SDS011;51027;42.162;24.754;2023-05-07T04:17:14;21.27;;;9.18;;
64615;SDS011;51027;42.162;24.754;2023-05-07T04:19:40;19.10;;;10.25;;
64615;SDS011;51027;42.162;24.754;2023-05-07T04:22:10;21.90;;;10.35;;
64615;SDS011;51027;42.162;24.754;2023-05-07T04:24:35;20.65;;;9.95;;
64615;SDS011;51027;42.162;24.754;2023-05-07T04:27:01;19.40;;;9.77;;
64615;SDS011;51027;42.162;24.754;2023-05-07T04:29:26;18.85;;;9.45;;
64615;SDS011;51027;42.162;24.754;2023-05-07T04:31:52;19.25;;;9.35;;
64615;SDS011;51027;42.162;24.754;2023-05-07T04:34:17;20.73;;;9.88;;
64615;SDS011;51027;42.162;24.754;2023-05-07T04:36:43;25.23;;;9.77;;
64615;SDS011;51027;42.162;24.754;2023-05-07T04:39:08;20.33;;;9.98;;
64615;SDS011;51027;42.162;24.754;2023-05-07T04:41:35;18.83;;;9.77;;
64615;SDS011;51027;42.162;24.754;2023-05-07T04:44:01;21.52;;;10.38;;
64615;SDS011;51027;42.162;24.754;2023-05-07T04:46:29;24.20;;;10.80;;
64615;SDS011;51027;42.162;24.754;2023-05-07T04:48:55;23.38;;;10.55;;
64615;SDS011;51027;42.162;24.754;2023-05-07T04:51:20;26.70;;;11.65;;
64615;SDS011;51027;42.162;24.754;2023-05-07T04:53:46;22.77;;;12.68;;
64615;SDS011;51027;42.162;24.754;2023-05-07T04:56:11;23.10;;;12.23;;
64615;SDS011;51027;42.162;24.754;2023-05-07T04:58:36;22.27;;;12.75;;
64615;SDS011;51027;42.162;24.754;2023-05-07T05:01:02;22.55;;;12.45;;
64615;SDS011;51027;42.162;24.754;2023-05-07T05:03:27;21.48;;;11.52;;
64615;SDS011;51027;42.162;24.754;2023-05-07T05:05:53;25.33;;;14.32;;
64615;SDS011;51027;42.162;24.754;2023-05-07T05:08:18;22.67;;;11.90;;
64615;SDS011;51027;42.162;24.754;2023-05-07T05:10:44;21.30;;;11.45;;
64615;SDS011;51027;42.162;24.754;2023-05-07T05:13:09;22.55;;;10.93;;
64615;SDS011;51027;42.162;24.754;2023-05-07T05:15:37;18.60;;;10.20;;
64615;SDS011;51027;42.162;24.754;2023-05-07T05:18:03;20.45;;;10.10;;
64615;SDS011;51027;42.162;24.754;2023-05-07T05:20:29;21.73;;;10.52;;
64615;SDS011;51027;42.162;24.754;2023-05-07T05:22:54;19.85;;;10.13;;
64615;SDS011;51027;42.162;24.754;2023-05-07T05:25:20;22.23;;;9.63;;
64615;SDS011;51027;42.162;24.754;2023-05-07T05:27:45;19.52;;;9.27;;
64615;SDS011;51027;42.162;24.754;2023-05-07T05:30:11;19.05;;;9.10;;
64615;SDS011;51027;42.162;24.754;2023-05-07T05:32:36;20.25;;;10.27;;
64615;SDS011;51027;42.162;24.754;2023-05-07T05:35:02;20.60;;;9.88;;
64615;SDS011;51027;42.162;24.754;2023-05-07T05:37:27;18.98;;;9.95;;
64615;SDS011;51027;42.162;24.754;2023-05-07T05:39:55;19.60;;;10.18;;
64615;SDS011;51027;42.162;24.754;2023-05-07T05:42:20;22.13;;;11.20;;
64615;SDS011;51027;42.162;24.754;2023-05-07T05:44:46;21.27;;;11.20;;
64615;SDS011;51027;42.162;24.754;2023-05-07T05:47:11;22.02;;;10.75;;
64615;SDS011;51027;42.162;24.754;2023-05-07T05:49:37;21.25;;;10.18;;
64615;SDS011;51027;42.162;24.754;2023-05-07T05:52:02;22.65;;;10.75;;
64615;SDS011;51027;42.162;24.754;2023-05-07T05:54:28;25.90;;;12.00;;
64615;SDS011;51027;42.162;24.754;2023-05-07T05:56:53;21.80;;;10.77;;
64615;SDS011;51027;42.162;24.754;2023-05-07T05:59:19;19.08;;;9.77;;
64615;SDS011;51027;42.162;24.754;2023-05-07T06:01:44;19.13;;;9.88;;
64615;SDS011;51027;42.162;24.754;2023-05-07T06:04:10;21.90;;;10.85;;
64615;SDS011;51027;42.162;24.754;2023-05-07T06:06:35;22.70;;;10.93;;
64615;SDS011;51027;42.162;24.754;2023-05-07T06:09:00;21.13;;;10.05;;
64615;SDS011;51027;42.162;24.754;2023-05-07T06:11:26;19.27;;;10.15;;
64615;SDS011;51027;42.162;24.754;2023-05-07T06:13:51;18.73;;;9.27;;
64615;SDS011;51027;42.162;24.754;2023-05-07T06:16:17;22.30;;;11.05;;
64615;SDS011;51027;42.162;24.754;2023-05-07T06:18:42;21.38;;;9.70;;
64615;SDS011;51027;42.162;24.754;2023-05-07T06:21:07;19.08;;;9.90;;
64615;SDS011;51027;42.162;24.754;2023-05-07T06:23:33;18.63;;;9.30;;
64615;SDS011;51027;42.162;24.754;2023-05-07T06:25:58;19.58;;;9.98;;
64615;SDS011;51027;42.162;24.754;2023-05-07T06:28:24;19.33;;;9.85;;
64615;SDS011;51027;42.162;24.754;2023-05-07T06:30:49;18.98;;;9.85;;
64615;SDS011;51027;42.162;24.754;2023-05-07T06:33:15;20.88;;;8.95;;
64615;SDS011;51027;42.162;24.754;2023-05-07T06:35:40;22.95;;;10.50;;
64615;SDS011;51027;42.162;24.754;2023-05-07T06:38:06;20.60;;;9.07;;
64615;SDS011;51027;42.162;24.754;2023-05-07T06:40:31;20.80;;;9.60;;
64615;SDS011;51027;42.162;24.754;2023-05-07T06:42:57;17.92;;;8.75;;
64615;SDS011;51027;42.162;24.754;2023-05-07T06:45:22;20.05;;;9.60;;
64615;SDS011;51027;42.162;24.754;2023-05-07T06:47:48;22.23;;;9.65;;
64615;SDS011;51027;42.162;24.754;2023-05-07T06:50:14;18.75;;;9.60;;
64615;SDS011;51027;42.162;24.754;2023-05-07T06:52:41;17.30;;;8.82;;
64615;SDS011;51027;42.162;24.754;2023-05-07T06:55:07;19.73;;;8.70;;
64615;SDS011;51027;42.162;24.754;2023-05-07T06:57:33;18.85;;;8.23;;
64615;SDS011;51027;42.162;24.754;2023-05-07T06:59:58;17.98;;;8.68;;
64615;SDS011;51027;42.162;24.754;2023-05-07T07:02:24;18.80;;;8.80;;
64615;SDS011;51027;42.162;24.754;2023-05-07T07:04:49;19.65;;;8.75;;
64615;SDS011;51027;42.162;24.754;2023-05-07T07:07:14;19.88;;;9.00;;
64615;SDS011;51027;42.162;24.754;2023-05-07T07:09:40;19.73;;;9.55;;
64615;SDS011;51027;42.162;24.754;2023-05-07T07:12:05;19.90;;;8.55;;
64615;SDS011;51027;42.162;24.754;2023-05-07T07:14:31;17.92;;;8.20;;
64615;SDS011;51027;42.162;24.754;2023-05-07T07:16:56;17.90;;;8.23;;
64615;SDS011;51027;42.162;24.754;2023-05-07T07:19:21;18.10;;;7.93;;
64615;SDS011;51027;42.162;24.754;2023-05-07T07:21:47;17.67;;;8.40;;
64615;SDS011;51027;42.162;24.754;2023-05-07T07:24:13;18.40;;;7.90;;
64615;SDS011;51027;42.162;24.754;2023-05-07T07:26:43;19.10;;;9.50;;
64615;SDS011;51027;42.162;24.754;2023-05-07T07:29:09;18.52;;;8.50;;
64615;SDS011;51027;42.162;24.754;2023-05-07T07:31:35;18.80;;;8.38;;
64615;SDS011;51027;42.162;24.754;2023-05-07T07:34:00;17.05;;;8.48;;
64615;SDS011;51027;42.162;24.754;2023-05-07T07:36:25;17.58;;;8.35;;
64615;SDS011;51027;42.162;24.754;2023-05-07T07:38:51;17.20;;;7.82;;
64615;SDS011;51027;42.162;24.754;2023-05-07T07:41:17;17.73;;;8.65;;
64615;SDS011;51027;42.162;24.754;2023-05-07T07:43:43;19.67;;;8.95;;
64615;SDS011;51027;42.162;24.754;2023-05-07T07:46:08;19.45;;;8.90;;
64615;SDS011;51027;42.162;24.754;2023-05-07T07:48:34;18.35;;;8.57;;
64615;SDS011;51027;42.162;24.754;2023-05-07T07:50:59;18.15;;;7.85;;
64615;SDS011;51027;42.162;24.754;2023-05-07T07:53:24;17.20;;;8.10;;
64615;SDS011;51027;42.162;24.754;2023-05-07T07:55:50;20.00;;;8.25;;
64615;SDS011;51027;42.162;24.754;2023-05-07T07:58:16;18.05;;;8.30;;
64615;SDS011;51027;42.162;24.754;2023-05-07T08:00:41;16.45;;;8.30;;
64615;SDS011;51027;42.162;24.754;2023-05-07T08:03:09;16.40;;;8.38;;
64615;SDS011;51027;42.162;24.754;2023-05-07T08:05:34;19.00;;;9.43;;
64615;SDS011;51027;42.162;24.754;2023-05-07T08:08:01;16.80;;;8.38;;
64615;SDS011;51027;42.162;24.754;2023-05-07T08:10:26;18.83;;;9.52;;
64615;SDS011;51027;42.162;24.754;2023-05-07T08:12:52;17.70;;;8.25;;
64615;SDS011;51027;42.162;24.754;2023-05-07T08:15:17;19.73;;;8.35;;
64615;SDS011;51027;42.162;24.754;2023-05-07T08:17:43;18.10;;;8.65;;
64615;SDS011;51027;42.162;24.754;2023-05-07T08:20:08;19.27;;;8.38;;
64615;SDS011;51027;42.162;24.754;2023-05-07T08:22:38;17.77;;;8.07;;
64615;SDS011;51027;42.162;24.754;2023-05-07T08:25:03;16.55;;;8.27;;
64615;SDS011;51027;42.162;24.754;2023-05-07T08:27:29;16.08;;;7.00;;
64615;SDS011;51027;42.162;24.754;2023-05-07T08:29:54;14.15;;;5.90;;
64615;SDS011;51027;42.162;24.754;2023-05-07T08:32:20;15.55;;;5.78;;
64615;SDS011;51027;42.162;24.754;2023-05-07T08:34:46;16.25;;;5.47;;
64615;SDS011;51027;42.162;24.754;2023-05-07T08:37:12;15.02;;;5.78;;
64615;SDS011;51027;42.162;24.754;2023-05-07T08:39:38;15.77;;;6.20;;
64615;SDS011;51027;42.162;24.754;2023-05-07T08:42:03;16.58;;;6.88;;
64615;SDS011;51027;42.162;24.754;2023-05-07T08:44:33;16.52;;;6.70;;
64615;SDS011;51027;42.162;24.754;2023-05-07T08:47:02;16.45;;;6.10;;
64615;SDS011;51027;42.162;24.754;2023-05-07T08:49:28;14.90;;;6.25;;
64615;SDS011;51027;42.162;24.754;2023-05-07T08:51:54;13.60;;;5.60;;
64615;SDS011;51027;42.162;24.754;2023-05-07T08:54:21;15.68;;;5.45;;
64615;SDS011;51027;42.162;24.754;2023-05-07T08:56:46;16.00;;;5.10;;
64615;SDS011;51027;42.162;24.754;2023-05-07T08:59:12;14.82;;;5.60;;
64615;SDS011;51027;42.162;24.754;2023-05-07T09:01:37;15.15;;;5.90;;
64615;SDS011;51027;42.162;24.754;2023-05-07T09:04:03;15.18;;;5.82;;
64615;SDS011;51027;42.162;24.754;2023-05-07T09:06:30;14.88;;;5.20;;
64615;SDS011;51027;42.162;24.754;2023-05-07T09:08:56;14.70;;;5.65;;
64615;SDS011;51027;42.162;24.754;2023-05-07T09:11:23;16.52;;;6.13;;
64615;SDS011;51027;42.162;24.754;2023-05-07T09:13:56;15.27;;;5.97;;
64615;SDS011;51027;42.162;24.754;2023-05-07T09:16:23;14.38;;;5.28;;
64615;SDS011;51027;42.162;24.754;2023-05-07T09:18:50;17.50;;;7.03;;
64615;SDS011;51027;42.162;24.754;2023-05-07T09:21:17;14.32;;;5.43;;
64615;SDS011;51027;42.162;24.754;2023-05-07T09:23:43;13.85;;;5.63;;
64615;SDS011;51027;42.162;24.754;2023-05-07T09:26:09;13.85;;;5.20;;
64615;SDS011;51027;42.162;24.754;2023-05-07T09:28:40;16.73;;;6.10;;
64615;SDS011;51027;42.162;24.754;2023-05-07T09:31:07;15.73;;;5.57;;
64615;SDS011;51027;42.162;24.754;2023-05-07T09:33:33;16.33;;;4.53;;
64615;SDS011;51027;42.162;24.754;2023-05-07T09:35:59;12.25;;;4.95;;
64615;SDS011;51027;42.162;24.754;2023-05-07T09:38:27;12.88;;;4.60;;
64615;SDS011;51027;42.162;24.754;2023-05-07T09:43:31;12.63;;;5.10;;
64615;SDS011;51027;42.162;24.754;2023-05-07T09:45:58;13.63;;;5.10;;
64615;SDS011;51027;42.162;24.754;2023-05-07T09:48:27;13.88;;;5.07;;
64615;SDS011;51027;42.162;24.754;2023-05-07T09:50:55;15.13;;;6.07;;
64615;SDS011;51027;42.162;24.754;2023-05-07T09:53:23;13.38;;;5.53;;
64615;SDS011;51027;42.162;24.754;2023-05-07T09:55:52;13.18;;;4.82;;
64615;SDS011;51027;42.162;24.754;2023-05-07T09:58:18;13.10;;;5.35;;
64615;SDS011;51027;42.162;24.754;2023-05-07T10:00:44;14.60;;;5.40;;
64615;SDS011;51027;42.162;24.754;2023-05-07T10:03:10;14.38;;;4.75;;
64615;SDS011;51027;42.162;24.754;2023-05-07T10:05:37;12.32;;;4.80;;
64615;SDS011;51027;42.162;24.754;2023-05-07T10:08:04;13.05;;;4.70;;
64615;SDS011;51027;42.162;24.754;2023-05-07T10:10:30;14.35;;;5.10;;
64615;SDS011;51027;42.162;24.754;2023-05-07T10:12:58;14.77;;;5.10;;
64615;SDS011;51027;42.162;24.754;2023-05-07T10:15:24;14.25;;;5.40;;
64615;SDS011;51027;42.162;24.754;2023-05-07T10:17:50;12.52;;;4.97;;
64615;SDS011;51027;42.162;24.754;2023-05-07T10:20:18;13.10;;;5.00;;
64615;SDS011;51027;42.162;24.754;2023-05-07T10:22:44;12.80;;;4.57;;
64615;SDS011;51027;42.162;24.754;2023-05-07T10:27:46;14.80;;;5.20;;
64615;SDS011;51027;42.162;24.754;2023-05-07T10:33:06;13.57;;;4.95;;
64615;SDS011;51027;42.162;24.754;2023-05-07T10:35:39;12.30;;;4.82;;
64615;SDS011;51027;42.162;24.754;2023-05-07T10:38:07;14.82;;;4.88;;
64615;SDS011;51027;42.162;24.754;2023-05-07T10:40:33;12.10;;;4.53;;
64615;SDS011;51027;42.162;24.754;2023-05-07T10:43:00;13.60;;;4.63;;
64615;SDS011;51027;42.162;24.754;2023-05-07T10:45:27;9.57;;;4.20;;
64615;SDS011;51027;42.162;24.754;2023-05-07T10:48:10;12.85;;;5.15;;
64615;SDS011;51027;42.162;24.754;2023-05-07T10:50:40;12.13;;;4.95;;
64615;SDS011;51027;42.162;24.754;2023-05-07T10:55:41;10.90;;;4.15;;
64615;SDS011;51027;42.162;24.754;2023-05-07T10:58:22;11.38;;;4.10;;
64615;SDS011;51027;42.162;24.754;2023-05-07T11:00:55;12.43;;;5.03;;
64615;SDS011;51027;42.162;24.754;2023-05-07T11:03:25;11.20;;;4.40;;
64615;SDS011;51027;42.162;24.754;2023-05-07T11:06:10;12.57;;;4.30;;
64615;SDS011;51027;42.162;24.754;2023-05-07T11:11:18;15.10;;;5.00;;
64615;SDS011;51027;42.162;24.754;2023-05-07T11:13:45;11.73;;;4.30;;
64615;SDS011;51027;42.162;24.754;2023-05-07T11:16:16;14.98;;;4.80;;
64615;SDS011;51027;42.162;24.754;2023-05-07T11:18:51;10.93;;;4.40;;
64615;SDS011;51027;42.162;24.754;2023-05-07T11:21:34;11.13;;;4.43;;
64615;SDS011;51027;42.162;24.754;2023-05-07T11:24:09;9.50;;;3.97;;
64615;SDS011;51027;42.162;24.754;2023-05-07T11:29:12;11.55;;;4.03;;
64615;SDS011;51027;42.162;24.754;2023-05-07T11:31:38;11.10;;;4.20;;
64615;SDS011;51027;42.162;24.754;2023-05-07T11:34:03;13.10;;;3.92;;
64615;SDS011;51027;42.162;24.754;2023-05-07T11:36:31;12.73;;;4.43;;
64615;SDS011;51027;42.162;24.754;2023-05-07T11:38:57;11.48;;;4.45;;
64615;SDS011;51027;42.162;24.754;2023-05-07T11:41:22;10.05;;;3.75;;
64615;SDS011;51027;42.162;24.754;2023-05-07T11:43:58;12.45;;;4.30;;
64615;SDS011;51027;42.162;24.754;2023-05-07T11:46:24;11.82;;;3.90;;
64615;SDS011;51027;42.162;24.754;2023-05-07T11:48:51;10.98;;;4.20;;
64615;SDS011;51027;42.162;24.754;2023-05-07T11:51:20;12.10;;;4.13;;
64615;SDS011;51027;42.162;24.754;2023-05-07T11:53:47;14.55;;;4.43;;
64615;SDS011;51027;42.162;24.754;2023-05-07T11:56:14;12.43;;;4.28;;
64615;SDS011;51027;42.162;24.754;2023-05-07T11:58:41;12.02;;;4.30;;
64615;SDS011;51027;42.162;24.754;2023-05-07T12:01:08;11.25;;;4.25;;
64615;SDS011;51027;42.162;24.754;2023-05-07T12:03:36;12.23;;;4.20;;
64615;SDS011;51027;42.162;24.754;2023-05-07T12:06:11;13.43;;;4.13;;
64615;SDS011;51027;42.162;24.754;2023-05-07T12:08:41;12.88;;;4.50;;
64615;SDS011;51027;42.162;24.754;2023-05-07T12:11:08;11.55;;;4.53;;
64615;SDS011;51027;42.162;24.754;2023-05-07T12:14:00;11.93;;;4.22;;
64615;SDS011;51027;42.162;24.754;2023-05-07T12:16:25;12.70;;;4.45;;
64615;SDS011;51027;42.162;24.754;2023-05-07T12:18:51;12.38;;;4.38;;
64615;SDS011;51027;42.162;24.754;2023-05-07T12:21:19;13.10;;;4.55;;
64615;SDS011;51027;42.162;24.754;2023-05-07T12:23:45;12.73;;;4.30;;
64615;SDS011;51027;42.162;24.754;2023-05-07T12:26:11;9.38;;;3.97;;
64615;SDS011;51027;42.162;24.754;2023-05-07T12:28:37;14.80;;;4.70;;
64615;SDS011;51027;42.162;24.754;2023-05-07T12:31:03;11.50;;;4.35;;
64615;SDS011;51027;42.162;24.754;2023-05-07T12:33:30;11.48;;;4.47;;
64615;SDS011;51027;42.162;24.754;2023-05-07T12:35:57;14.55;;;4.45;;
64615;SDS011;51027;42.162;24.754;2023-05-07T12:38:23;12.48;;;4.57;;
64615;SDS011;51027;42.162;24.754;2023-05-07T12:40:53;10.20;;;4.05;;
64615;SDS011;51027;42.162;24.754;2023-05-07T12:43:28;13.05;;;4.50;;
64615;SDS011;51027;42.162;24.754;2023-05-07T12:45:55;13.35;;;4.60;;
64615;SDS011;51027;42.162;24.754;2023-05-07T12:48:22;10.57;;;3.90;;
64615;SDS011;51027;42.162;24.754;2023-05-07T12:50:51;12.35;;;4.68;;
64615;SDS011;51027;42.162;24.754;2023-05-07T12:53:20;9.48;;;4.03;;
64615;SDS011;51027;42.162;24.754;2023-05-07T12:55:47;14.85;;;4.57;;
64615;SDS011;51027;42.162;24.754;2023-05-07T12:58:14;10.40;;;3.95;;
64615;SDS011;51027;42.162;24.754;2023-05-07T13:00:59;13.40;;;4.32;;
64615;SDS011;51027;42.162;24.754;2023-05-07T13:03:27;12.32;;;4.20;;
64615;SDS011;51027;42.162;24.754;2023-05-07T13:05:58;11.57;;;4.65;;
64615;SDS011;51027;42.162;24.754;2023-05-07T13:08:32;11.70;;;4.50;;
64615;SDS011;51027;42.162;24.754;2023-05-07T13:11:00;10.55;;;4.40;;
64615;SDS011;51027;42.162;24.754;2023-05-07T13:13:30;9.02;;;3.90;;
64615;SDS011;51027;42.162;24.754;2023-05-07T13:15:56;12.65;;;4.53;;
64615;SDS011;51027;42.162;24.754;2023-05-07T13:18:22;11.55;;;3.95;;
64615;SDS011;51027;42.162;24.754;2023-05-07T13:20:47;11.18;;;4.07;;
64615;SDS011;51027;42.162;24.754;2023-05-07T13:23:12;11.20;;;4.07;;
64615;SDS011;51027;42.162;24.754;2023-05-07T13:25:38;11.68;;;3.80;;
64615;SDS011;51027;42.162;24.754;2023-05-07T13:28:03;10.68;;;3.80;;
64615;SDS011;51027;42.162;24.754;2023-05-07T13:30:29;10.45;;;4.20;;
64615;SDS011;51027;42.162;24.754;2023-05-07T13:32:55;11.77;;;4.10;;
64615;SDS011;51027;42.162;24.754;2023-05-07T13:35:21;11.38;;;4.10;;
64615;SDS011;51027;42.162;24.754;2023-05-07T13:37:46;9.30;;;3.83;;
64615;SDS011;51027;42.162;24.754;2023-05-07T13:40:14;9.90;;;4.20;;
64615;SDS011;51027;42.162;24.754;2023-05-07T13:42:40;11.10;;;4.10;;
64615;SDS011;51027;42.162;24.754;2023-05-07T13:45:06;10.07;;;3.60;;
64615;SDS011;51027;42.162;24.754;2023-05-07T13:47:32;10.27;;;3.70;;
64615;SDS011;51027;42.162;24.754;2023-05-07T13:49:58;8.95;;;3.55;;
64615;SDS011;51027;42.162;24.754;2023-05-07T13:52:23;8.57;;;3.45;;
64615;SDS011;51027;42.162;24.754;2023-05-07T13:54:48;9.70;;;3.70;;
64615;SDS011;51027;42.162;24.754;2023-05-07T13:57:14;10.25;;;4.00;;
64615;SDS011;51027;42.162;24.754;2023-05-07T13:59:40;11.40;;;4.43;;
64615;SDS011;51027;42.162;24.754;2023-05-07T14:02:06;8.77;;;3.72;;
64615;SDS011;51027;42.162;24.754;2023-05-07T14:04:31;11.57;;;3.60;;
64615;SDS011;51027;42.162;24.754;2023-05-07T14:06:57;9.35;;;3.42;;
64615;SDS011;51027;42.162;24.754;2023-05-07T14:09:22;11.15;;;3.47;;
64615;SDS011;51027;42.162;24.754;2023-05-07T14:11:47;10.73;;;3.55;;
64615;SDS011;51027;42.162;24.754;2023-05-07T14:14:16;9.85;;;3.60;;
64615;SDS011;51027;42.162;24.754;2023-05-07T14:16:42;10.68;;;3.58;;
64615;SDS011;51027;42.162;24.754;2023-05-07T14:19:07;9.77;;;3.47;;
64615;SDS011;51027;42.162;24.754;2023-05-07T14:21:33;7.22;;;3.15;;
64615;SDS011;51027;42.162;24.754;2023-05-07T14:23:58;7.43;;;3.22;;
64615;SDS011;51027;42.162;24.754;2023-05-07T14:26:25;10.52;;;3.30;;
64615;SDS011;51027;42.162;24.754;2023-05-07T14:28:51;8.90;;;3.72;;
64615;SDS011;51027;42.162;24.754;2023-05-07T14:31:17;11.90;;;3.55;;
64615;SDS011;51027;42.162;24.754;2023-05-07T14:33:43;8.35;;;3.50;;
64615;SDS011;51027;42.162;24.754;2023-05-07T14:36:08;9.68;;;3.70;;
64615;SDS011;51027;42.162;24.754;2023-05-07T14:38:33;7.82;;;3.20;;